createdAt,value
2022-09-01T00:01:55.101Z,14.30
2022-09-01T00:04:27.091Z,14.40
2022-09-01T00:06:56.407Z,14.50
2022-09-01T00:09:25.091Z,14.50
2022-09-01T00:11:54.692Z,14.50
2022-09-01T00:14:30.793Z,14.60
2022-09-01T00:16:59.435Z,14.60
2022-09-01T00:19:27.292Z,14.60
2022-09-01T00:21:56.899Z,14.60
2022-09-01T00:24:26.231Z,14.70
2022-09-01T00:26:54.287Z,14.70
2022-09-01T00:29:22.653Z,14.70
2022-09-01T00:31:50.908Z,14.80
2022-09-01T00:34:19.455Z,14.70
2022-09-01T00:36:48.063Z,14.70
2022-09-01T00:39:17.373Z,14.70
2022-09-01T00:41:47.225Z,14.70
2022-09-01T00:44:17.218Z,14.70
2022-09-01T00:46:50.972Z,14.70
2022-09-01T00:49:31.659Z,14.80
2022-09-01T00:52:11.878Z,14.90
2022-09-01T00:54:44.689Z,14.90
2022-09-01T00:57:13.885Z,14.90
2022-09-01T00:59:47.436Z,14.90
2022-09-01T01:02:15.794Z,14.80
2022-09-01T01:04:44.315Z,14.80
2022-09-01T01:07:13.402Z,14.80
2022-09-01T01:09:46.564Z,14.80
2022-09-01T01:12:18.201Z,14.70
2022-09-01T01:14:50.252Z,14.70
2022-09-01T01:17:22.799Z,14.70
2022-09-01T01:20:11.796Z,14.70
2022-09-01T01:23:05.967Z,14.70
2022-09-01T01:25:39.307Z,14.70
2022-09-01T01:28:10.353Z,14.70
2022-09-01T01:30:39.757Z,14.70
2022-09-01T01:33:08.383Z,14.70
2022-09-01T01:35:36.662Z,14.60
2022-09-01T01:38:07.926Z,14.60
2022-09-01T01:40:38.186Z,14.60
2022-09-01T01:43:06.548Z,14.60
2022-09-01T01:45:34.864Z,14.60
2022-09-01T01:48:10.636Z,14.60
2022-09-01T01:50:38.926Z,14.60
2022-09-01T01:53:12.035Z,14.70
2022-09-01T01:55:43.809Z,14.70
2022-09-01T01:58:15.008Z,14.60
2022-09-01T02:00:44.700Z,14.70
2022-09-01T02:03:14.616Z,14.70
2022-09-01T02:05:42.367Z,14.70
2022-09-01T02:08:11.543Z,14.60
2022-09-01T02:10:44.068Z,14.70
2022-09-01T02:13:16.399Z,14.60
2022-09-01T02:15:47.920Z,14.60
2022-09-01T02:18:20.133Z,14.60
2022-09-01T02:20:50.293Z,14.60
2022-09-01T02:23:23.295Z,14.50
2022-09-01T02:26:14.989Z,14.50
2022-09-01T02:28:43.149Z,14.50
2022-09-01T02:31:12.183Z,14.50
2022-09-01T02:33:44.088Z,14.50
2022-09-01T02:36:15.786Z,14.50
2022-09-01T02:38:46.790Z,14.50
2022-09-01T02:41:20.030Z,14.40
2022-09-01T02:43:48.259Z,14.50
2022-09-01T02:46:16.923Z,14.60
2022-09-01T02:48:51.389Z,14.60
2022-09-01T02:51:21.249Z,14.70
2022-09-01T02:53:52.690Z,14.70
2022-09-01T02:56:25.126Z,14.70
2022-09-01T02:58:53.952Z,14.60
2022-09-01T03:01:25.052Z,14.60
2022-09-01T03:03:55.687Z,14.60
2022-09-01T03:06:24.777Z,14.60
2022-09-01T03:08:53.869Z,14.50
2022-09-01T03:11:24.594Z,14.40
2022-09-01T03:13:53.437Z,14.40
2022-09-01T03:16:22.399Z,14.30
2022-09-01T03:18:50.624Z,14.20
2022-09-01T03:21:18.938Z,14.20
2022-09-01T03:23:48.668Z,14.10
2022-09-01T03:26:19.423Z,14.00
2022-09-01T03:28:49.359Z,14.00
2022-09-01T03:31:18.596Z,14.00
2022-09-01T03:33:46.457Z,13.90
2022-09-01T03:36:19.430Z,13.90
2022-09-01T03:38:49.109Z,13.90
2022-09-01T03:41:18.462Z,13.90
2022-09-01T03:43:48.735Z,13.80
2022-09-01T03:46:21.460Z,13.80
2022-09-01T03:48:51.319Z,13.80
2022-09-01T03:51:20.680Z,13.80
2022-09-01T03:53:48.427Z,13.70
2022-09-01T03:56:16.640Z,13.70
2022-09-01T03:58:47.250Z,13.70
2022-09-01T04:01:17.054Z,13.60
2022-09-01T04:03:48.946Z,13.50
2022-09-01T04:06:21.260Z,13.40
2022-09-01T04:08:49.180Z,13.30
2022-09-01T04:11:23.547Z,13.20
2022-09-01T04:13:52.105Z,13.10
2022-09-01T04:16:42.350Z,13.00
2022-09-01T04:19:20.467Z,12.90
2022-09-01T04:21:50.229Z,12.90
2022-09-01T04:24:19.116Z,12.80
2022-09-01T04:26:48.892Z,12.70
2022-09-01T04:29:19.357Z,12.70
2022-09-01T04:31:53.507Z,12.60
2022-09-01T04:34:22.423Z,12.60
2022-09-01T04:36:54.266Z,12.50
2022-09-01T04:39:23.358Z,12.50
2022-09-01T04:41:51.223Z,12.50
2022-09-01T04:44:20.144Z,12.50
2022-09-01T04:46:50.816Z,12.40
2022-09-01T04:49:22.281Z,12.40
2022-09-01T04:51:53.972Z,12.30
2022-09-01T04:54:23.658Z,12.30
2022-09-01T04:56:52.791Z,12.30
2022-09-01T04:59:23.032Z,12.30
2022-09-01T05:01:54.301Z,12.20
2022-09-01T05:04:24.503Z,12.30
2022-09-01T05:06:55.995Z,12.20
2022-09-01T05:09:25.152Z,12.20
2022-09-01T05:11:53.494Z,12.30
2022-09-01T05:14:23.047Z,12.30
2022-09-01T05:16:54.007Z,12.40
2022-09-01T05:19:26.782Z,12.30
2022-09-01T05:21:58.281Z,12.40
2022-09-01T05:24:30.287Z,12.50
2022-09-01T05:27:00.287Z,12.50
2022-09-01T05:29:28.859Z,12.50
2022-09-01T05:31:58.946Z,12.60
2022-09-01T05:34:28.020Z,12.50
2022-09-01T05:36:58.215Z,12.60
2022-09-01T05:39:26.220Z,12.60
2022-09-01T05:41:54.944Z,12.60
2022-09-01T05:44:23.566Z,12.70
2022-09-01T05:46:53.488Z,12.70
2022-09-01T05:49:22.742Z,12.90
2022-09-01T05:51:52.527Z,13.00
2022-09-01T05:54:23.243Z,13.10
2022-09-01T05:56:53.477Z,13.20
2022-09-01T05:59:24.914Z,13.20
2022-09-01T06:01:54.225Z,13.20
2022-09-01T06:04:25.510Z,13.30
2022-09-01T06:07:06.639Z,13.30
2022-09-01T06:09:39.117Z,13.40
2022-09-01T06:12:08.608Z,13.50
2022-09-01T06:14:36.357Z,13.60
2022-09-01T06:17:04.179Z,13.60
2022-09-01T06:19:37.154Z,13.70
2022-09-01T06:22:05.559Z,13.70
2022-09-01T06:24:33.476Z,13.80
2022-09-01T06:27:01.212Z,13.90
2022-09-01T06:29:31.299Z,14.00
2022-09-01T06:32:02.360Z,14.10
2022-09-01T06:34:30.216Z,14.10
2022-09-01T06:36:59.839Z,14.10
2022-09-01T06:39:27.717Z,14.20
2022-09-01T06:41:58.146Z,14.30
2022-09-01T06:44:26.007Z,14.40
2022-09-01T06:46:54.961Z,14.50
2022-09-01T06:49:23.506Z,14.50
2022-09-01T06:51:52.746Z,14.50
2022-09-01T06:54:22.839Z,14.60
2022-09-01T06:56:51.826Z,14.60
2022-09-01T06:59:21.815Z,14.70
2022-09-01T07:01:51.617Z,14.80
2022-09-01T07:04:22.128Z,14.90
2022-09-01T07:07:53.319Z,15.00
2022-09-01T07:09:49.922Z,15.10
2022-09-01T07:12:31.995Z,15.20
2022-09-01T07:17:52.110Z,15.60
2022-09-01T07:20:24.466Z,15.60
2022-09-01T07:23:09.607Z,15.70
2022-09-01T07:26:02.361Z,15.80
2022-09-01T07:28:39.418Z,15.90
2022-09-01T07:39:51.557Z,16.60
2022-09-01T07:45:28.250Z,16.90
2022-09-01T07:47:56.545Z,17.00
2022-09-01T07:50:40.320Z,17.30
2022-09-01T07:53:11.158Z,17.60
2022-09-01T07:55:42.229Z,17.80
2022-09-01T07:58:14.093Z,17.90
2022-09-01T08:00:43.570Z,18.00
2022-09-01T08:03:11.554Z,18.10
2022-09-01T08:05:39.663Z,18.10
2022-09-01T08:08:18.687Z,18.30
2022-09-01T08:10:49.431Z,18.60
2022-09-01T08:13:21.123Z,18.70
2022-09-01T08:18:53.333Z,19.60
2022-09-01T08:21:23.415Z,20.60
2022-09-01T08:23:52.223Z,22.70
2022-09-01T08:26:22.221Z,25.90
2022-09-01T08:28:58.464Z,29.00
2022-09-01T08:31:30.778Z,32.50
2022-09-01T08:34:00.072Z,34.90
2022-09-01T08:36:27.908Z,36.30
2022-09-01T08:38:55.693Z,37.20
2022-09-01T08:41:37.436Z,37.90
2022-09-01T08:44:14.869Z,38.50
2022-09-01T08:46:44.019Z,39.20
2022-09-01T08:49:25.335Z,38.80
2022-09-01T08:52:00.921Z,38.60
2022-09-01T08:54:36.286Z,39.00
2022-09-01T08:57:09.424Z,39.40
2022-09-01T08:59:39.183Z,39.20
2022-09-01T09:02:22.071Z,38.80
2022-09-01T09:05:01.638Z,39.50
2022-09-01T09:07:43.508Z,39.70
2022-09-01T09:10:17.902Z,40.30
2022-09-01T09:12:58.750Z,40.40
2022-09-01T09:15:35.022Z,40.70
2022-09-01T09:18:27.146Z,40.70
2022-09-01T09:21:10.158Z,40.80
2022-09-01T09:23:42.316Z,40.20
2022-09-01T09:26:10.115Z,40.00
2022-09-01T09:28:40.116Z,39.70
2022-09-01T09:31:33.859Z,39.60
2022-09-01T09:34:02.462Z,39.70
2022-09-01T09:36:34.818Z,40.70
2022-09-01T09:39:10.321Z,40.40
2022-09-01T09:41:39.842Z,40.60
2022-09-01T09:44:18.557Z,40.00
2022-09-01T09:46:48.968Z,37.10
2022-09-01T09:49:21.598Z,34.80
2022-09-01T09:52:16.369Z,36.00
2022-09-01T09:55:00.991Z,38.50
2022-09-01T09:57:31.307Z,39.60
2022-09-01T10:00:06.519Z,40.00
2022-09-01T10:02:37.999Z,39.80
2022-09-01T10:05:24.990Z,37.10
2022-09-01T10:07:53.793Z,33.80
2022-09-01T10:10:31.077Z,33.20
2022-09-01T10:13:02.239Z,33.10
2022-09-01T10:15:33.346Z,31.50
2022-09-01T10:18:32.828Z,30.10
2022-09-01T10:21:01.761Z,27.90
2022-09-01T10:23:31.720Z,28.40
2022-09-01T10:26:05.889Z,30.00
2022-09-01T10:28:41.188Z,29.90
2022-09-01T10:31:17.371Z,32.30
2022-09-01T10:33:47.061Z,34.80
2022-09-01T10:36:16.297Z,35.90
2022-09-01T10:38:52.788Z,36.70
2022-09-01T10:41:45.770Z,36.60
2022-09-01T10:44:21.178Z,35.80
2022-09-01T10:46:51.380Z,34.30
2022-09-01T10:50:01.712Z,32.90
2022-09-01T10:53:05.218Z,29.80
2022-09-01T10:55:46.267Z,27.10
2022-09-01T11:01:46.879Z,25.00
2022-09-01T11:04:07.085Z,24.80
2022-09-01T11:07:12.595Z,24.80
2022-09-01T11:09:43.473Z,24.20
2022-09-01T11:12:40.518Z,23.70
2022-09-01T11:15:35.760Z,23.50
2022-09-01T11:18:08.595Z,23.80
2022-09-01T11:20:39.632Z,24.00
2022-09-01T11:23:12.822Z,24.10
2022-09-01T11:25:44.666Z,24.50
2022-09-01T11:28:45.356Z,24.80
2022-09-01T11:31:26.887Z,25.10
2022-09-01T11:34:04.765Z,25.10
2022-09-01T11:36:35.915Z,25.20
2022-09-01T11:39:13.035Z,25.30
2022-09-01T11:41:55.878Z,25.30
2022-09-01T11:44:31.192Z,25.10
2022-09-01T11:47:03.764Z,24.60
2022-09-01T11:49:35.714Z,23.80
2022-09-01T11:52:05.391Z,23.40
2022-09-01T11:54:41.034Z,23.50
2022-09-01T11:57:22.166Z,23.70
2022-09-01T11:59:50.476Z,23.90
2022-09-01T12:02:20.246Z,24.10
2022-09-01T12:04:49.218Z,24.30
2022-09-01T12:07:28.696Z,24.60
2022-09-01T12:09:56.680Z,24.70
2022-09-01T12:12:33.439Z,24.80
2022-09-01T12:15:06.513Z,24.80
2022-09-01T12:17:34.974Z,24.70
2022-09-01T12:20:28.093Z,24.90
2022-09-01T12:22:58.175Z,25.10
2022-09-01T12:25:27.559Z,25.10
2022-09-01T12:27:57.393Z,25.10
2022-09-01T12:30:27.083Z,25.10
2022-09-01T12:33:22.984Z,25.10
2022-09-01T12:35:43.864Z,24.90
2022-09-01T12:38:23.077Z,24.80
2022-09-01T12:40:53.583Z,24.70
2022-09-01T12:43:38.713Z,24.60
2022-09-01T12:46:09.266Z,24.40
2022-09-01T12:48:40.442Z,24.30
2022-09-01T12:51:19.054Z,24.30
2022-09-01T12:53:54.080Z,24.40
2022-09-01T12:56:29.780Z,24.50
2022-09-01T12:59:14.143Z,24.10
2022-09-01T13:01:43.703Z,23.60
2022-09-01T13:04:24.856Z,23.40
2022-09-01T13:06:53.747Z,23.50
2022-09-01T13:09:21.836Z,23.60
2022-09-01T13:12:06.536Z,23.70
2022-09-01T13:14:36.179Z,23.80
2022-09-01T13:17:04.271Z,23.60
2022-09-01T13:19:32.024Z,23.40
2022-09-01T13:21:59.827Z,23.40
2022-09-01T13:24:30.442Z,23.50
2022-09-01T13:29:48.963Z,23.80
2022-09-01T13:32:19.336Z,24.00
2022-09-01T13:34:48.475Z,24.10
2022-09-01T13:37:18.593Z,24.00
2022-09-01T13:39:47.359Z,23.70
2022-09-01T13:42:16.287Z,23.40
2022-09-01T13:44:44.541Z,22.90
2022-09-01T13:47:30.222Z,22.50
2022-09-01T13:50:08.474Z,22.20
2022-09-01T13:52:38.537Z,22.20
2022-09-01T13:55:08.195Z,22.30
2022-09-01T13:57:36.939Z,22.50
2022-09-01T14:00:07.671Z,22.60
2022-09-01T14:02:36.781Z,22.70
2022-09-01T14:05:05.529Z,22.70
2022-09-01T14:07:33.531Z,22.70
2022-09-01T14:10:01.573Z,22.70
2022-09-01T14:12:29.962Z,22.70
2022-09-01T14:15:17.181Z,22.70
2022-09-01T14:17:49.162Z,22.80
2022-09-01T14:20:20.009Z,22.70
2022-09-01T14:22:48.261Z,22.60
2022-09-01T14:25:16.847Z,22.60
2022-09-01T14:27:45.003Z,22.60
2022-09-01T14:30:16.222Z,22.60
2022-09-01T14:32:44.276Z,22.50
2022-09-01T14:35:13.774Z,22.60
2022-09-01T14:37:42.182Z,22.60
2022-09-01T14:40:16.473Z,22.50
2022-09-01T14:42:49.077Z,22.50
2022-09-01T14:45:18.654Z,22.40
2022-09-01T14:47:46.863Z,22.40
2022-09-01T14:50:21.703Z,22.20
2022-09-01T14:52:53.865Z,22.10
2022-09-01T14:55:22.277Z,22.20
2022-09-01T14:57:50.145Z,22.30
2022-09-01T15:00:18.323Z,22.30
2022-09-01T15:02:47.000Z,22.40
2022-09-01T15:05:16.463Z,22.40
2022-09-01T15:07:44.461Z,22.30
2022-09-01T15:10:16.064Z,22.30
2022-09-01T15:12:52.904Z,22.10
2022-09-01T15:15:20.960Z,22.10
2022-09-01T15:17:48.710Z,22.00
2022-09-01T15:20:35.302Z,22.00
2022-09-01T15:23:03.233Z,21.90
2022-09-01T15:25:31.224Z,21.90
2022-09-01T15:27:58.953Z,21.90
2022-09-01T15:30:27.963Z,21.90
2022-09-01T15:32:56.248Z,21.90
2022-09-01T15:35:25.432Z,21.80
2022-09-01T15:37:53.787Z,21.80
2022-09-01T15:40:21.867Z,21.70
2022-09-01T15:42:49.922Z,21.70
2022-09-01T15:45:20.100Z,21.70
2022-09-01T15:47:49.158Z,21.60
2022-09-01T15:50:21.583Z,21.60
2022-09-01T15:52:54.067Z,21.50
2022-09-01T15:55:24.809Z,21.50
2022-09-01T15:57:54.901Z,21.30
2022-09-01T16:00:24.811Z,21.30
2022-09-01T16:02:54.297Z,21.20
2022-09-01T16:05:22.323Z,21.20
2022-09-01T16:07:53.213Z,21.10
2022-09-01T16:10:21.355Z,21.10
2022-09-01T16:12:49.851Z,21.00
2022-09-01T16:15:19.890Z,21.00
2022-09-01T16:18:06.774Z,20.90
2022-09-01T16:20:39.395Z,20.90
2022-09-01T16:23:15.000Z,20.80
2022-09-01T16:25:45.320Z,20.80
2022-09-01T16:28:23.405Z,20.70
2022-09-01T16:30:53.298Z,20.60
2022-09-01T16:33:21.085Z,20.50
2022-09-01T16:36:00.306Z,20.50
2022-09-01T16:38:39.292Z,20.30
2022-09-01T16:41:13.837Z,20.20
2022-09-01T16:43:46.854Z,20.20
2022-09-01T16:46:23.297Z,20.20
2022-09-01T16:48:57.564Z,20.10
2022-09-01T16:51:32.473Z,20.00
2022-09-01T16:54:13.263Z,19.90
2022-09-01T16:56:51.113Z,19.80
2022-09-01T16:59:27.967Z,19.80
2022-09-01T17:02:05.640Z,19.70
2022-09-01T17:04:41.461Z,19.50
2022-09-01T17:07:14.954Z,19.50
2022-09-01T17:09:45.812Z,19.40
2022-09-01T17:12:23.237Z,19.30
2022-09-01T17:14:56.291Z,19.30
2022-09-01T17:17:32.066Z,19.20
2022-09-01T17:20:00.416Z,19.00
2022-09-01T17:22:28.688Z,18.90
2022-09-01T17:27:41.589Z,18.60
2022-09-01T17:30:10.046Z,18.40
2022-09-01T17:32:53.480Z,18.30
2022-09-01T17:35:27.510Z,18.20
2022-09-01T17:38:04.643Z,18.10
2022-09-01T17:40:56.583Z,18.10
2022-09-01T17:43:35.596Z,18.00
2022-09-01T17:46:14.260Z,18.00
2022-09-01T17:48:49.637Z,17.80
2022-09-01T17:51:29.531Z,17.70
2022-09-01T17:54:08.383Z,17.70
2022-09-01T17:56:51.215Z,17.50
2022-09-01T17:59:29.351Z,17.30
2022-09-01T18:02:12.041Z,17.20
2022-09-01T18:04:52.516Z,17.10
2022-09-01T18:07:35.602Z,17.00
2022-09-01T18:10:07.388Z,16.90
2022-09-01T18:12:40.190Z,16.90
2022-09-01T18:15:10.031Z,16.80
2022-09-01T18:17:42.159Z,16.70
2022-09-01T18:20:12.982Z,16.60
2022-09-01T18:22:45.868Z,16.60
2022-09-01T18:25:19.198Z,16.60
2022-09-01T18:27:48.428Z,16.60
2022-09-01T18:30:26.261Z,16.60
2022-09-01T18:33:05.269Z,16.60
2022-09-01T18:35:40.307Z,16.50
2022-09-01T18:38:21.646Z,16.40
2022-09-01T18:41:09.846Z,16.20
2022-09-01T18:43:44.655Z,16.10
2022-09-01T18:46:23.938Z,16.10
2022-09-01T18:49:00.852Z,16.00
2022-09-01T18:51:44.435Z,15.90
2022-09-01T18:54:19.903Z,15.60
2022-09-01T18:56:55.623Z,15.40
2022-09-01T19:00:04.195Z,15.30
2022-09-01T19:02:47.802Z,15.10
2022-09-01T19:05:31.430Z,15.00
2022-09-01T19:08:08.327Z,15.00
2022-09-01T19:10:42.621Z,14.90
2022-09-01T19:13:19.275Z,15.00
2022-09-01T19:15:56.995Z,15.10
2022-09-01T19:18:32.185Z,15.20
2022-09-01T19:21:06.860Z,15.20
2022-09-01T19:23:42.687Z,15.00
2022-09-01T19:26:16.549Z,15.00
2022-09-01T19:28:48.024Z,15.00
2022-09-01T19:31:23.904Z,15.00
2022-09-01T19:33:54.499Z,14.80
2022-09-01T19:36:29.390Z,14.70
2022-09-01T19:38:57.748Z,14.50
2022-09-01T19:41:32.999Z,14.30
2022-09-01T19:44:08.320Z,14.20
2022-09-01T19:46:42.603Z,14.10
2022-09-01T19:49:20.269Z,14.00
2022-09-01T19:51:54.853Z,14.10
2022-09-01T19:54:30.440Z,14.00
2022-09-01T19:57:04.156Z,14.00
2022-09-01T19:59:45.904Z,13.90
2022-09-01T20:02:23.920Z,13.80
2022-09-01T20:04:57.413Z,13.80
2022-09-01T20:07:31.206Z,13.80
2022-09-01T20:10:10.740Z,13.80
2022-09-01T20:12:44.988Z,13.80
2022-09-01T20:15:21.847Z,13.80
2022-09-01T20:17:56.886Z,13.80
2022-09-01T20:20:28.453Z,13.90
2022-09-01T20:23:04.524Z,13.90
2022-09-01T20:25:41.214Z,13.70
2022-09-01T20:28:25.598Z,13.50
2022-09-01T20:30:59.138Z,13.40
2022-09-01T20:33:35.851Z,13.30
2022-09-01T20:36:09.721Z,13.20
2022-09-01T20:39:05.052Z,13.20
2022-09-01T20:41:39.616Z,13.20
2022-09-01T20:44:15.636Z,13.10
2022-09-01T20:46:43.376Z,13.10
2022-09-01T20:49:17.223Z,13.00
2022-09-01T20:51:52.606Z,13.00
2022-09-01T20:54:33.323Z,13.10
2022-09-01T20:57:12.132Z,13.00
2022-09-01T20:59:46.453Z,12.90
2022-09-01T21:02:26.777Z,12.80
2022-09-01T21:05:07.493Z,12.80
2022-09-01T21:07:40.806Z,13.00
2022-09-01T21:10:22.129Z,13.00
2022-09-01T21:12:52.735Z,13.00
2022-09-01T21:15:34.160Z,13.00
2022-09-01T21:18:13.951Z,13.00
2022-09-01T21:20:57.516Z,12.90
2022-09-01T21:23:26.328Z,12.80
2022-09-01T21:25:54.184Z,12.80
2022-09-01T21:28:22.489Z,12.70
2022-09-01T21:30:54.355Z,12.60
2022-09-01T21:33:22.699Z,12.60
2022-09-01T21:35:52.368Z,12.60
2022-09-01T21:38:20.219Z,12.60
2022-09-01T21:40:48.996Z,12.60
2022-09-01T21:43:19.648Z,12.40
2022-09-01T21:45:47.731Z,12.40
2022-09-01T21:48:15.551Z,12.20
2022-09-01T21:50:43.827Z,12.20
2022-09-01T21:53:14.459Z,12.10
2022-09-01T21:55:42.850Z,12.00
2022-09-01T21:58:11.242Z,12.00
2022-09-01T22:00:41.526Z,11.90
2022-09-01T22:03:10.531Z,12.10
2022-09-01T22:05:41.410Z,12.10
2022-09-01T22:08:12.112Z,12.00
2022-09-01T22:10:45.123Z,12.00
2022-09-01T22:13:13.888Z,12.00
2022-09-01T22:15:44.266Z,12.00
2022-09-01T22:18:12.868Z,12.10
2022-09-01T22:20:41.117Z,12.00
2022-09-01T22:23:09.637Z,12.00
2022-09-01T22:25:43.723Z,12.00
2022-09-01T22:28:12.738Z,12.10
2022-09-01T22:30:45.231Z,12.10
2022-09-01T22:33:13.139Z,12.10
2022-09-01T22:35:42.221Z,11.90
2022-09-01T22:38:10.395Z,11.80
2022-09-01T22:40:46.085Z,11.70
2022-09-01T22:43:17.709Z,11.70
2022-09-01T22:45:46.203Z,11.60
2022-09-01T22:48:14.387Z,11.60
2022-09-01T22:50:43.797Z,11.50
2022-09-01T22:53:12.298Z,11.50
2022-09-01T22:55:42.116Z,11.40
2022-09-01T22:58:12.999Z,11.40
2022-09-01T23:00:45.437Z,11.40
2022-09-01T23:03:14.861Z,11.40
2022-09-01T23:05:43.786Z,11.30
2022-09-01T23:08:12.083Z,11.40
2022-09-01T23:10:40.125Z,11.30
2022-09-01T23:13:07.900Z,11.30
2022-09-01T23:15:36.964Z,11.20
2022-09-01T23:18:04.800Z,11.20
2022-09-01T23:20:32.560Z,11.20
2022-09-01T23:23:00.346Z,11.10
2022-09-01T23:25:28.135Z,11.00
2022-09-01T23:27:55.903Z,11.10
2022-09-01T23:30:23.707Z,11.10
2022-09-01T23:32:52.770Z,11.20
2022-09-01T23:35:20.553Z,11.30
2022-09-01T23:37:48.281Z,11.30
2022-09-01T23:40:16.097Z,11.30
2022-09-01T23:42:43.970Z,11.30
2022-09-01T23:45:12.753Z,11.30
2022-09-01T23:47:40.534Z,11.40
2022-09-01T23:50:10.765Z,11.30
2022-09-01T23:52:39.397Z,11.30
2022-09-01T23:55:08.307Z,11.20
2022-09-01T23:57:36.200Z,11.20
